Elon, NC

15:07 EDT le 27 Mars 2015 (GMT -0400)
Burlington | | Change Station
CLOSE
Current Station
Stations météorologiques personnelles
Location: Burlington, NC
Altitude: 646 ft
Stations météo à proximité

Alt. 646 ft 36.10 °N, 79.47 °W | Updated 10 minutes ago

Pluie
Pluie
44.1 ° F
Paraît 42 ° F
N
4.2
Vent Variable Vent de Nord

Aujourd'hui
Haut(e) -- | Bas -- ° F
--% Risque de précip.
Hier
Haut(e) -- | Bas -- ° F
Precip. -- pouce
7:11 AM 7:35 PM
Premier quartier, 55% visible
Pression 29.77 pouce
Visibilité 9.0 Miles terrestres
Nuages Nuages épars 1800 ft
Couvert 3200 ft
Refroidissement éolien 42 ° F
Point de rosée 44 ° F
Humidité 98%
Précipitations 0.56 pouce
Profondeur de la couche neigeuse Non disponible.
UV 2 sur 12
Pollen 4.50 sur 12
Qualité de l'air Non disponible.
Flu Activity Non disponible.
METAR KBUY 271854Z AUTO 36008KT 9SM -RA SCT018 OVC032 07/05 A2977 RMK AO2 SLP079 P0001 T00720050

More Conditions Fewer Conditions

Pression 29.77 pouce
Visibilité 9.0 Miles terrestres
Nuages Nuages épars 1800 ft
Couvert 3200 ft
Refroidissement éolien 42 ° F
Point de rosée 44 ° F
Humidité 98%
Précipitations 0.56 pouce
Profondeur de la couche neigeuse Non disponible.
UV 2 sur 12
Pollen 4.50 sur 12
Qualité de l'air Non disponible.
Flu Activity Non disponible.
METAR KBUY 271854Z AUTO 36008KT 9SM -RA SCT018 OVC032 07/05 A2977 RMK AO2 SLP079 P0001 T00720050

More Conditions Fewer Conditions

10-Day Weather Forecast

Almanac

Astronomie

Mar. 27, 2015 Lever Coucher
Temps réel
Crépuscule civil
Crépuscule nautique
Crépuscule astronomique
Lune
Durée de lumière visible
Longueur du jour
Tomorrow will be .
, % of the Moon is Illuminated

Extrêmes aujourd'hui

State Highs State Lows

Community

WunderPhotos

Upload Photos

1,808,789 Photos téléchargées !

WunderBlogs® & News

Nearby

Qualité de l'air

  Qualité de l'air Indice de la qualité de l'air Polluant
Not available.

Épaisseur de neige

Station Depth Altitude

Activité sismique

Ville Distance Mag. Time & Date
Minimum magnitude displayed is 2.5.

Températures des eaux côtières

Lieu Température

Stations

Stations météo à proximité

Emplacement de la station Température Refroidissement éolien Point de rosée Humidité Vent Precip. Alt. Mise à jour Type